sensor_id;sensor_type;location;lat;lon;timestamp;P1;durP1;ratioP1;P2;durP2;ratioP2
36449;SDS011;22475;51.390;7.180;2024-03-23T00:53:48;10.10;;;2.20;;
36449;SDS011;22475;51.390;7.180;2024-03-23T00:56:15;10.82;;;2.42;;
36449;SDS011;22475;51.390;7.180;2024-03-23T00:58:42;9.57;;;1.92;;
36449;SDS011;22475;51.390;7.180;2024-03-23T01:01:07;7.50;;;2.08;;
36449;SDS011;22475;51.390;7.180;2024-03-23T01:03:34;10.98;;;2.47;;
36449;SDS011;22475;51.390;7.180;2024-03-23T01:06:00;7.70;;;2.38;;
36449;SDS011;22475;51.390;7.180;2024-03-23T01:08:28;15.13;;;2.30;;
36449;SDS011;22475;51.390;7.180;2024-03-23T01:10:55;12.75;;;3.05;;
36449;SDS011;22475;51.390;7.180;2024-03-23T01:13:22;11.73;;;2.90;;
36449;SDS011;22475;51.390;7.180;2024-03-23T01:15:49;9.60;;;2.35;;
36449;SDS011;22475;51.390;7.180;2024-03-23T01:18:16;10.60;;;2.10;;
36449;SDS011;22475;51.390;7.180;2024-03-23T01:20:42;12.50;;;1.95;;
36449;SDS011;22475;51.390;7.180;2024-03-23T01:23:09;20.00;;;3.53;;
36449;SDS011;22475;51.390;7.180;2024-03-23T01:25:35;17.95;;;2.97;;
36449;SDS011;22475;51.390;7.180;2024-03-23T01:28:03;7.15;;;2.30;;
36449;SDS011;22475;51.390;7.180;2024-03-23T01:30:29;19.90;;;2.25;;
36449;SDS011;22475;51.390;7.180;2024-03-23T01:32:56;5.72;;;1.70;;
36449;SDS011;22475;51.390;7.180;2024-03-23T01:35:22;8.25;;;2.97;;
36449;SDS011;22475;51.390;7.180;2024-03-23T01:37:49;10.63;;;2.53;;
36449;SDS011;22475;51.390;7.180;2024-03-23T01:40:16;12.30;;;3.00;;
36449;SDS011;22475;51.390;7.180;2024-03-23T01:42:42;10.73;;;2.28;;
36449;SDS011;22475;51.390;7.180;2024-03-23T01:45:21;10.00;;;2.75;;
36449;SDS011;22475;51.390;7.180;2024-03-23T01:47:48;8.20;;;2.28;;
36449;SDS011;22475;51.390;7.180;2024-03-23T01:50:14;8.55;;;2.00;;
36449;SDS011;22475;51.390;7.180;2024-03-23T01:52:41;7.43;;;1.65;;
36449;SDS011;22475;51.390;7.180;2024-03-23T01:55:07;6.97;;;1.73;;
36449;SDS011;22475;51.390;7.180;2024-03-23T01:57:34;6.28;;;1.30;;
36449;SDS011;22475;51.390;7.180;2024-03-23T02:00:00;8.43;;;1.83;;
36449;SDS011;22475;51.390;7.180;2024-03-23T02:02:28;5.45;;;1.98;;
36449;SDS011;22475;51.390;7.180;2024-03-23T02:04:54;6.43;;;1.30;;
36449;SDS011;22475;51.390;7.180;2024-03-23T02:07:21;6.93;;;1.77;;
36449;SDS011;22475;51.390;7.180;2024-03-23T02:09:47;9.07;;;1.77;;
36449;SDS011;22475;51.390;7.180;2024-03-23T02:12:13;12.13;;;1.70;;
36449;SDS011;22475;51.390;7.180;2024-03-23T02:14:40;3.47;;;1.67;;
36449;SDS011;22475;51.390;7.180;2024-03-23T02:17:06;6.50;;;1.40;;
36449;SDS011;22475;51.390;7.180;2024-03-23T02:19:35;8.98;;;1.80;;
36449;SDS011;22475;51.390;7.180;2024-03-23T02:22:01;5.22;;;1.38;;
36449;SDS011;22475;51.390;7.180;2024-03-23T02:24:30;11.10;;;1.30;;
36449;SDS011;22475;51.390;7.180;2024-03-23T02:26:57;9.20;;;2.35;;
36449;SDS011;22475;51.390;7.180;2024-03-23T02:29:22;9.70;;;1.00;;
36449;SDS011;22475;51.390;7.180;2024-03-23T02:31:49;7.05;;;1.70;;
36449;SDS011;22475;51.390;7.180;2024-03-23T02:34:15;12.13;;;1.45;;
36449;SDS011;22475;51.390;7.180;2024-03-23T02:36:42;5.32;;;1.75;;
36449;SDS011;22475;51.390;7.180;2024-03-23T02:39:07;9.75;;;1.92;;
36449;SDS011;22475;51.390;7.180;2024-03-23T02:41:36;13.70;;;2.53;;
36449;SDS011;22475;51.390;7.180;2024-03-23T02:44:02;8.43;;;3.08;;
36449;SDS011;22475;51.390;7.180;2024-03-23T02:46:29;4.80;;;2.75;;
36449;SDS011;22475;51.390;7.180;2024-03-23T02:48:54;8.50;;;1.50;;
36449;SDS011;22475;51.390;7.180;2024-03-23T02:51:22;2.75;;;1.60;;
36449;SDS011;22475;51.390;7.180;2024-03-23T02:53:48;8.27;;;1.02;;
36449;SDS011;22475;51.390;7.180;2024-03-23T02:56:15;5.53;;;1.52;;
36449;SDS011;22475;51.390;7.180;2024-03-23T02:58:43;7.70;;;1.92;;
36449;SDS011;22475;51.390;7.180;2024-03-23T03:01:09;12.95;;;1.55;;
36449;SDS011;22475;51.390;7.180;2024-03-23T03:03:35;7.38;;;1.83;;
36449;SDS011;22475;51.390;7.180;2024-03-23T03:06:02;2.88;;;1.30;;
36449;SDS011;22475;51.390;7.180;2024-03-23T03:08:29;5.32;;;1.48;;
36449;SDS011;22475;51.390;7.180;2024-03-23T03:10:55;6.68;;;1.42;;
36449;SDS011;22475;51.390;7.180;2024-03-23T03:13:21;11.43;;;2.20;;
36449;SDS011;22475;51.390;7.180;2024-03-23T03:15:49;4.93;;;1.48;;
36449;SDS011;22475;51.390;7.180;2024-03-23T03:18:15;8.13;;;1.90;;
36449;SDS011;22475;51.390;7.180;2024-03-23T03:20:42;5.35;;;1.52;;
36449;SDS011;22475;51.390;7.180;2024-03-23T03:23:08;3.25;;;1.10;;
36449;SDS011;22475;51.390;7.180;2024-03-23T03:25:35;4.45;;;1.40;;
36449;SDS011;22475;51.390;7.180;2024-03-23T03:28:01;12.88;;;1.30;;
36449;SDS011;22475;51.390;7.180;2024-03-23T03:30:29;10.07;;;1.45;;
36449;SDS011;22475;51.390;7.180;2024-03-23T03:32:56;7.35;;;0.75;;
36449;SDS011;22475;51.390;7.180;2024-03-23T03:35:22;5.22;;;1.10;;
36449;SDS011;22475;51.390;7.180;2024-03-23T03:37:48;4.80;;;1.20;;
36449;SDS011;22475;51.390;7.180;2024-03-23T03:40:16;7.68;;;1.73;;
36449;SDS011;22475;51.390;7.180;2024-03-23T03:42:42;5.15;;;1.40;;
36449;SDS011;22475;51.390;7.180;2024-03-23T03:45:09;8.90;;;1.48;;
36449;SDS011;22475;51.390;7.180;2024-03-23T03:47:35;8.98;;;2.35;;
36449;SDS011;22475;51.390;7.180;2024-03-23T03:50:03;3.92;;;0.90;;
36449;SDS011;22475;51.390;7.180;2024-03-23T03:52:30;8.07;;;1.42;;
36449;SDS011;22475;51.390;7.180;2024-03-23T03:55:00;8.52;;;1.13;;
36449;SDS011;22475;51.390;7.180;2024-03-23T03:57:27;11.52;;;1.33;;
36449;SDS011;22475;51.390;7.180;2024-03-23T03:59:54;3.55;;;1.10;;
36449;SDS011;22475;51.390;7.180;2024-03-23T04:02:20;3.83;;;0.88;;
36449;SDS011;22475;51.390;7.180;2024-03-23T04:04:46;6.65;;;1.60;;
36449;SDS011;22475;51.390;7.180;2024-03-23T04:07:14;6.45;;;1.00;;
36449;SDS011;22475;51.390;7.180;2024-03-23T04:09:41;4.97;;;1.70;;
36449;SDS011;22475;51.390;7.180;2024-03-23T04:12:06;5.05;;;1.40;;
36449;SDS011;22475;51.390;7.180;2024-03-23T04:14:33;3.00;;;0.65;;
36449;SDS011;22475;51.390;7.180;2024-03-23T04:16:59;4.60;;;1.02;;
36449;SDS011;22475;51.390;7.180;2024-03-23T04:19:26;9.27;;;1.42;;
36449;SDS011;22475;51.390;7.180;2024-03-23T04:21:51;10.30;;;1.52;;
36449;SDS011;22475;51.390;7.180;2024-03-23T04:24:19;13.00;;;3.63;;
36449;SDS011;22475;51.390;7.180;2024-03-23T04:26:47;10.13;;;1.85;;
36449;SDS011;22475;51.390;7.180;2024-03-23T04:29:14;13.38;;;2.28;;
36449;SDS011;22475;51.390;7.180;2024-03-23T04:31:40;6.07;;;1.60;;
36449;SDS011;22475;51.390;7.180;2024-03-23T04:34:06;6.10;;;1.98;;
36449;SDS011;22475;51.390;7.180;2024-03-23T04:36:32;4.35;;;1.80;;
36449;SDS011;22475;51.390;7.180;2024-03-23T04:38:59;9.80;;;2.55;;
36449;SDS011;22475;51.390;7.180;2024-03-23T04:41:28;9.75;;;2.28;;
36449;SDS011;22475;51.390;7.180;2024-03-23T04:43:55;17.15;;;1.85;;
36449;SDS011;22475;51.390;7.180;2024-03-23T04:46:21;10.02;;;2.45;;
36449;SDS011;22475;51.390;7.180;2024-03-23T04:48:48;10.63;;;2.40;;
36449;SDS011;22475;51.390;7.180;2024-03-23T04:51:20;15.38;;;3.08;;
36449;SDS011;22475;51.390;7.180;2024-03-23T04:53:47;10.00;;;1.92;;
36449;SDS011;22475;51.390;7.180;2024-03-23T04:56:14;9.32;;;2.05;;
36449;SDS011;22475;51.390;7.180;2024-03-23T04:58:42;12.43;;;2.47;;
36449;SDS011;22475;51.390;7.180;2024-03-23T05:01:08;10.50;;;2.47;;
36449;SDS011;22475;51.390;7.180;2024-03-23T05:03:36;10.13;;;1.33;;
36449;SDS011;22475;51.390;7.180;2024-03-23T05:06:02;4.32;;;0.88;;
36449;SDS011;22475;51.390;7.180;2024-03-23T05:08:30;5.68;;;1.25;;
36449;SDS011;22475;51.390;7.180;2024-03-23T05:10:56;13.18;;;2.05;;
36449;SDS011;22475;51.390;7.180;2024-03-23T05:13:22;8.90;;;1.63;;
36449;SDS011;22475;51.390;7.180;2024-03-23T05:15:52;6.93;;;2.33;;
36449;SDS011;22475;51.390;7.180;2024-03-23T05:18:19;9.95;;;1.60;;
36449;SDS011;22475;51.390;7.180;2024-03-23T05:20:45;13.60;;;2.75;;
36449;SDS011;22475;51.390;7.180;2024-03-23T05:23:11;7.82;;;1.38;;
36449;SDS011;22475;51.390;7.180;2024-03-23T05:25:37;5.57;;;1.50;;
36449;SDS011;22475;51.390;7.180;2024-03-23T05:28:04;9.65;;;2.03;;
36449;SDS011;22475;51.390;7.180;2024-03-23T05:30:30;7.30;;;1.75;;
36449;SDS011;22475;51.390;7.180;2024-03-23T05:32:58;15.35;;;2.65;;
36449;SDS011;22475;51.390;7.180;2024-03-23T05:35:24;6.13;;;1.60;;
36449;SDS011;22475;51.390;7.180;2024-03-23T05:37:51;7.75;;;2.03;;
36449;SDS011;22475;51.390;7.180;2024-03-23T05:40:17;10.20;;;1.98;;
36449;SDS011;22475;51.390;7.180;2024-03-23T05:42:43;9.10;;;1.73;;
36449;SDS011;22475;51.390;7.180;2024-03-23T05:45:09;12.60;;;1.73;;
36449;SDS011;22475;51.390;7.180;2024-03-23T05:47:36;8.70;;;1.98;;
36449;SDS011;22475;51.390;7.180;2024-03-23T05:50:03;5.05;;;1.33;;
36449;SDS011;22475;51.390;7.180;2024-03-23T05:52:31;8.77;;;1.90;;
36449;SDS011;22475;51.390;7.180;2024-03-23T05:54:57;14.60;;;2.38;;
36449;SDS011;22475;51.390;7.180;2024-03-23T05:57:24;14.60;;;2.65;;
36449;SDS011;22475;51.390;7.180;2024-03-23T05:59:50;1.90;;;0.68;;
36449;SDS011;22475;51.390;7.180;2024-03-23T06:02:17;9.02;;;1.88;;
36449;SDS011;22475;51.390;7.180;2024-03-23T06:04:44;13.93;;;4.25;;
36449;SDS011;22475;51.390;7.180;2024-03-23T06:07:13;11.00;;;3.10;;
36449;SDS011;22475;51.390;7.180;2024-03-23T06:09:39;7.18;;;3.60;;
36449;SDS011;22475;51.390;7.180;2024-03-23T06:12:06;15.38;;;2.97;;
36449;SDS011;22475;51.390;7.180;2024-03-23T06:14:32;11.75;;;2.67;;
36449;SDS011;22475;51.390;7.180;2024-03-23T06:16:59;7.72;;;2.63;;
36449;SDS011;22475;51.390;7.180;2024-03-23T06:19:25;11.48;;;2.28;;
36449;SDS011;22475;51.390;7.180;2024-03-23T06:21:52;9.23;;;2.60;;
36449;SDS011;22475;51.390;7.180;2024-03-23T06:24:19;9.18;;;3.38;;
36449;SDS011;22475;51.390;7.180;2024-03-23T06:26:46;12.95;;;4.00;;
36449;SDS011;22475;51.390;7.180;2024-03-23T06:29:12;6.32;;;3.00;;
36449;SDS011;22475;51.390;7.180;2024-03-23T06:31:39;5.65;;;2.58;;
36449;SDS011;22475;51.390;7.180;2024-03-23T06:34:04;4.10;;;1.77;;
36449;SDS011;22475;51.390;7.180;2024-03-23T06:36:31;15.88;;;3.63;;
36449;SDS011;22475;51.390;7.180;2024-03-23T06:38:57;6.97;;;3.60;;
36449;SDS011;22475;51.390;7.180;2024-03-23T06:41:26;10.35;;;3.47;;
36449;SDS011;22475;51.390;7.180;2024-03-23T06:43:52;3.67;;;1.35;;
36449;SDS011;22475;51.390;7.180;2024-03-23T06:46:18;12.60;;;4.68;;
36449;SDS011;22475;51.390;7.180;2024-03-23T06:48:44;9.98;;;5.55;;
36449;SDS011;22475;51.390;7.180;2024-03-23T06:51:11;9.27;;;4.43;;
36449;SDS011;22475;51.390;7.180;2024-03-23T06:53:37;15.30;;;6.25;;
36449;SDS011;22475;51.390;7.180;2024-03-23T06:56:03;12.85;;;5.90;;
36449;SDS011;22475;51.390;7.180;2024-03-23T06:58:32;9.65;;;6.88;;
36449;SDS011;22475;51.390;7.180;2024-03-23T07:00:58;19.33;;;7.88;;
36449;SDS011;22475;51.390;7.180;2024-03-23T07:03:24;17.58;;;8.18;;
36449;SDS011;22475;51.390;7.180;2024-03-23T07:05:51;18.25;;;8.15;;
36449;SDS011;22475;51.390;7.180;2024-03-23T07:08:16;21.45;;;9.25;;
36449;SDS011;22475;51.390;7.180;2024-03-23T07:10:46;16.08;;;10.00;;
36449;SDS011;22475;51.390;7.180;2024-03-23T07:13:12;20.27;;;9.25;;
36449;SDS011;22475;51.390;7.180;2024-03-23T07:15:40;21.25;;;11.55;;
36449;SDS011;22475;51.390;7.180;2024-03-23T07:18:06;17.38;;;8.75;;
36449;SDS011;22475;51.390;7.180;2024-03-23T07:20:32;10.07;;;4.93;;
36449;SDS011;22475;51.390;7.180;2024-03-23T07:22:58;16.58;;;6.53;;
36449;SDS011;22475;51.390;7.180;2024-03-23T07:25:25;18.10;;;8.70;;
36449;SDS011;22475;51.390;7.180;2024-03-23T07:27:53;13.43;;;6.60;;
36449;SDS011;22475;51.390;7.180;2024-03-23T07:30:19;18.52;;;9.85;;
36449;SDS011;22475;51.390;7.180;2024-03-23T07:32:46;19.73;;;8.98;;
36449;SDS011;22475;51.390;7.180;2024-03-23T07:35:13;17.30;;;6.75;;
36449;SDS011;22475;51.390;7.180;2024-03-23T07:37:39;20.73;;;7.88;;
36449;SDS011;22475;51.390;7.180;2024-03-23T07:40:07;17.00;;;7.07;;
36449;SDS011;22475;51.390;7.180;2024-03-23T07:42:34;11.32;;;6.40;;
36449;SDS011;22475;51.390;7.180;2024-03-23T07:45:01;18.65;;;6.88;;
36449;SDS011;22475;51.390;7.180;2024-03-23T07:47:27;15.18;;;6.85;;
36449;SDS011;22475;51.390;7.180;2024-03-23T07:49:55;11.38;;;5.40;;
36449;SDS011;22475;51.390;7.180;2024-03-23T07:52:20;22.25;;;6.03;;
36449;SDS011;22475;51.390;7.180;2024-03-23T07:54:47;10.32;;;4.00;;
36449;SDS011;22475;51.390;7.180;2024-03-23T07:57:13;11.05;;;4.97;;
36449;SDS011;22475;51.390;7.180;2024-03-23T07:59:40;10.20;;;3.33;;
36449;SDS011;22475;51.390;7.180;2024-03-23T08:02:05;18.08;;;4.75;;
36449;SDS011;22475;51.390;7.180;2024-03-23T08:04:32;13.45;;;6.55;;
36449;SDS011;22475;51.390;7.180;2024-03-23T08:06:59;16.48;;;3.00;;
36449;SDS011;22475;51.390;7.180;2024-03-23T08:09:26;13.80;;;3.30;;
36449;SDS011;22475;51.390;7.180;2024-03-23T08:11:52;7.22;;;2.70;;
36449;SDS011;22475;51.390;7.180;2024-03-23T08:14:19;20.33;;;3.92;;
36449;SDS011;22475;51.390;7.180;2024-03-23T08:16:44;16.40;;;3.50;;
36449;SDS011;22475;51.390;7.180;2024-03-23T08:19:13;12.77;;;3.03;;
36449;SDS011;22475;51.390;7.180;2024-03-23T08:21:39;12.15;;;2.97;;
36449;SDS011;22475;51.390;7.180;2024-03-23T08:24:07;7.55;;;3.00;;
36449;SDS011;22475;51.390;7.180;2024-03-23T08:26:33;12.73;;;4.57;;
36449;SDS011;22475;51.390;7.180;2024-03-23T08:29:02;14.35;;;5.15;;
36449;SDS011;22475;51.390;7.180;2024-03-23T08:31:28;13.80;;;3.88;;
36449;SDS011;22475;51.390;7.180;2024-03-23T08:33:55;11.93;;;2.97;;
36449;SDS011;22475;51.390;7.180;2024-03-23T08:36:20;11.07;;;3.75;;
36449;SDS011;22475;51.390;7.180;2024-03-23T08:38:47;8.95;;;4.13;;
36449;SDS011;22475;51.390;7.180;2024-03-23T08:41:16;8.73;;;2.90;;
36449;SDS011;22475;51.390;7.180;2024-03-23T08:43:43;10.00;;;3.38;;
36449;SDS011;22475;51.390;7.180;2024-03-23T08:46:09;6.30;;;2.75;;
36449;SDS011;22475;51.390;7.180;2024-03-23T08:48:38;15.55;;;3.42;;
36449;SDS011;22475;51.390;7.180;2024-03-23T08:51:04;13.00;;;1.98;;
36449;SDS011;22475;51.390;7.180;2024-03-23T08:53:33;17.42;;;3.25;;
36449;SDS011;22475;51.390;7.180;2024-03-23T08:55:59;11.55;;;3.58;;
36449;SDS011;22475;51.390;7.180;2024-03-23T08:58:27;13.10;;;3.75;;
36449;SDS011;22475;51.390;7.180;2024-03-23T09:00:54;14.15;;;4.00;;
36449;SDS011;22475;51.390;7.180;2024-03-23T09:03:22;10.98;;;2.10;;
36449;SDS011;22475;51.390;7.180;2024-03-23T09:05:48;11.73;;;2.10;;
36449;SDS011;22475;51.390;7.180;2024-03-23T09:08:15;6.00;;;1.92;;
36449;SDS011;22475;51.390;7.180;2024-03-23T09:10:41;6.82;;;1.77;;
36449;SDS011;22475;51.390;7.180;2024-03-23T09:13:08;4.63;;;0.70;;
36449;SDS011;22475;51.390;7.180;2024-03-23T09:15:36;42.35;;;1.25;;
36449;SDS011;22475;51.390;7.180;2024-03-23T09:18:11;9.23;;;0.80;;
36449;SDS011;22475;51.390;7.180;2024-03-23T09:20:37;5.15;;;0.88;;
36449;SDS011;22475;51.390;7.180;2024-03-23T09:23:04;3.88;;;0.40;;
36449;SDS011;22475;51.390;7.180;2024-03-23T09:25:30;1.10;;;1.10;;
36449;SDS011;22475;51.390;7.180;2024-03-23T09:27:57;0.85;;;0.70;;
36449;SDS011;22475;51.390;7.180;2024-03-23T09:30:23;5.97;;;0.90;;
36449;SDS011;22475;51.390;7.180;2024-03-23T09:32:51;5.60;;;1.20;;
36449;SDS011;22475;51.390;7.180;2024-03-23T09:35:20;6.78;;;1.30;;
36449;SDS011;22475;51.390;7.180;2024-03-23T09:37:47;5.90;;;1.42;;
36449;SDS011;22475;51.390;7.180;2024-03-23T09:40:13;7.55;;;1.27;;
36449;SDS011;22475;51.390;7.180;2024-03-23T09:42:39;9.02;;;1.52;;
36449;SDS011;22475;51.390;7.180;2024-03-23T09:45:12;5.03;;;2.42;;
36449;SDS011;22475;51.390;7.180;2024-03-23T09:47:43;5.63;;;1.75;;
36449;SDS011;22475;51.390;7.180;2024-03-23T09:50:10;10.98;;;3.05;;
36449;SDS011;22475;51.390;7.180;2024-03-23T09:52:38;9.40;;;1.73;;
36449;SDS011;22475;51.390;7.180;2024-03-23T09:55:04;12.75;;;2.47;;
36449;SDS011;22475;51.390;7.180;2024-03-23T09:57:31;10.07;;;2.40;;
36449;SDS011;22475;51.390;7.180;2024-03-23T09:59:57;9.32;;;2.78;;
36449;SDS011;22475;51.390;7.180;2024-03-23T10:02:24;16.17;;;2.20;;
36449;SDS011;22475;51.390;7.180;2024-03-23T10:04:50;13.07;;;2.22;;
36449;SDS011;22475;51.390;7.180;2024-03-23T10:07:19;7.75;;;2.17;;
36449;SDS011;22475;51.390;7.180;2024-03-23T10:09:45;4.20;;;2.08;;
36449;SDS011;22475;51.390;7.180;2024-03-23T10:12:13;2.97;;;1.75;;
36449;SDS011;22475;51.390;7.180;2024-03-23T10:14:40;6.47;;;2.25;;
36449;SDS011;22475;51.390;7.180;2024-03-23T10:17:11;6.53;;;1.35;;
36449;SDS011;22475;51.390;7.180;2024-03-23T10:19:39;10.70;;;2.88;;
36449;SDS011;22475;51.390;7.180;2024-03-23T10:22:06;14.55;;;1.95;;
36449;SDS011;22475;51.390;7.180;2024-03-23T10:24:34;9.02;;;2.50;;
36449;SDS011;22475;51.390;7.180;2024-03-23T10:27:01;1.67;;;1.40;;
36449;SDS011;22475;51.390;7.180;2024-03-23T10:29:27;8.82;;;2.20;;
36449;SDS011;22475;51.390;7.180;2024-03-23T10:31:53;8.15;;;2.58;;
36449;SDS011;22475;51.390;7.180;2024-03-23T10:34:32;4.50;;;2.17;;
36449;SDS011;22475;51.390;7.180;2024-03-23T10:36:59;8.10;;;1.88;;
36449;SDS011;22475;51.390;7.180;2024-03-23T10:39:27;13.48;;;1.80;;
36449;SDS011;22475;51.390;7.180;2024-03-23T10:41:57;10.20;;;2.40;;
36449;SDS011;22475;51.390;7.180;2024-03-23T10:44:25;10.13;;;1.33;;
36449;SDS011;22475;51.390;7.180;2024-03-23T10:46:54;15.77;;;1.95;;
36449;SDS011;22475;51.390;7.180;2024-03-23T10:49:24;4.93;;;1.05;;
36449;SDS011;22475;51.390;7.180;2024-03-23T10:51:51;8.43;;;1.70;;
36449;SDS011;22475;51.390;7.180;2024-03-23T10:54:18;3.60;;;1.73;;
36449;SDS011;22475;51.390;7.180;2024-03-23T10:56:46;9.50;;;2.15;;
36449;SDS011;22475;51.390;7.180;2024-03-23T10:59:14;6.97;;;1.58;;
36449;SDS011;22475;51.390;7.180;2024-03-23T11:01:53;7.03;;;1.60;;
36449;SDS011;22475;51.390;7.180;2024-03-23T11:04:30;8.25;;;1.95;;
36449;SDS011;22475;51.390;7.180;2024-03-23T11:06:58;3.88;;;0.90;;
36449;SDS011;22475;51.390;7.180;2024-03-23T11:09:39;3.83;;;1.00;;
36449;SDS011;22475;51.390;7.180;2024-03-23T11:12:17;2.30;;;1.13;;
36449;SDS011;22475;51.390;7.180;2024-03-23T11:14:55;4.22;;;0.80;;
36449;SDS011;22475;51.390;7.180;2024-03-23T11:17:24;1.25;;;0.55;;
36449;SDS011;22475;51.390;7.180;2024-03-23T11:19:54;1.23;;;0.32;;
36449;SDS011;22475;51.390;7.180;2024-03-23T11:22:38;1.70;;;0.47;;
36449;SDS011;22475;51.390;7.180;2024-03-23T11:25:11;0.10;;;0.10;;
36449;SDS011;22475;51.390;7.180;2024-03-23T11:27:42;0.13;;;0.13;;
36449;SDS011;22475;51.390;7.180;2024-03-23T11:30:12;4.25;;;0.60;;
36449;SDS011;22475;51.390;7.180;2024-03-23T11:32:39;1.40;;;0.80;;
36449;SDS011;22475;51.390;7.180;2024-03-23T11:35:05;0.98;;;0.70;;
36449;SDS011;22475;51.390;7.180;2024-03-23T11:37:35;0.70;;;0.60;;
36449;SDS011;22475;51.390;7.180;2024-03-23T11:40:04;3.20;;;0.80;;
36449;SDS011;22475;51.390;7.180;2024-03-23T11:42:43;3.72;;;0.50;;
36449;SDS011;22475;51.390;7.180;2024-03-23T11:45:09;2.83;;;0.68;;
36449;SDS011;22475;51.390;7.180;2024-03-23T11:47:39;0.70;;;0.43;;
36449;SDS011;22475;51.390;7.180;2024-03-23T11:50:05;4.38;;;0.43;;
36449;SDS011;22475;51.390;7.180;2024-03-23T11:52:32;5.95;;;1.00;;
36449;SDS011;22475;51.390;7.180;2024-03-23T11:55:02;1.35;;;0.40;;
36449;SDS011;22475;51.390;7.180;2024-03-23T11:57:30;4.53;;;0.90;;
36449;SDS011;22475;51.390;7.180;2024-03-23T11:59:56;2.83;;;0.73;;
36449;SDS011;22475;51.390;7.180;2024-03-23T12:02:24;2.85;;;0.93;;
36449;SDS011;22475;51.390;7.180;2024-03-23T12:04:50;4.95;;;0.50;;
36449;SDS011;22475;51.390;7.180;2024-03-23T12:07:18;4.32;;;1.63;;
36449;SDS011;22475;51.390;7.180;2024-03-23T12:09:45;2.60;;;0.63;;
36449;SDS011;22475;51.390;7.180;2024-03-23T12:12:13;7.28;;;1.25;;
36449;SDS011;22475;51.390;7.180;2024-03-23T12:14:41;1.23;;;0.60;;
36449;SDS011;22475;51.390;7.180;2024-03-23T12:17:11;2.70;;;0.82;;
36449;SDS011;22475;51.390;7.180;2024-03-23T12:19:39;1.73;;;0.45;;
36449;SDS011;22475;51.390;7.180;2024-03-23T12:22:07;5.43;;;0.85;;
36449;SDS011;22475;51.390;7.180;2024-03-23T12:24:33;0.95;;;0.60;;
36449;SDS011;22475;51.390;7.180;2024-03-23T12:27:01;1.88;;;0.75;;
36449;SDS011;22475;51.390;7.180;2024-03-23T12:29:28;2.85;;;0.65;;
36449;SDS011;22475;51.390;7.180;2024-03-23T12:31:56;7.95;;;0.73;;
36449;SDS011;22475;51.390;7.180;2024-03-23T12:34:24;2.85;;;0.82;;
36449;SDS011;22475;51.390;7.180;2024-03-23T12:36:52;2.40;;;0.38;;
36449;SDS011;22475;51.390;7.180;2024-03-23T12:39:18;0.55;;;0.45;;
36449;SDS011;22475;51.390;7.180;2024-03-23T12:41:45;1.17;;;0.38;;
36449;SDS011;22475;51.390;7.180;2024-03-23T12:44:11;1.50;;;0.70;;
36449;SDS011;22475;51.390;7.180;2024-03-23T12:46:38;0.88;;;0.50;;
36449;SDS011;22475;51.390;7.180;2024-03-23T12:49:04;1.77;;;0.30;;
36449;SDS011;22475;51.390;7.180;2024-03-23T12:51:31;2.25;;;0.47;;
36449;SDS011;22475;51.390;7.180;2024-03-23T12:53:58;7.50;;;1.48;;
36449;SDS011;22475;51.390;7.180;2024-03-23T12:56:25;2.63;;;1.02;;
36449;SDS011;22475;51.390;7.180;2024-03-23T12:58:53;0.98;;;0.90;;
36449;SDS011;22475;51.390;7.180;2024-03-23T13:01:22;8.45;;;0.90;;
36449;SDS011;22475;51.390;7.180;2024-03-23T13:03:47;2.22;;;0.35;;
36449;SDS011;22475;51.390;7.180;2024-03-23T13:06:15;1.30;;;0.65;;
36449;SDS011;22475;51.390;7.180;2024-03-23T13:08:40;14.48;;;3.35;;
36449;SDS011;22475;51.390;7.180;2024-03-23T13:11:09;1.27;;;0.80;;
36449;SDS011;22475;51.390;7.180;2024-03-23T13:13:38;7.10;;;1.30;;
36449;SDS011;22475;51.390;7.180;2024-03-23T13:16:05;1.65;;;0.30;;
36449;SDS011;22475;51.390;7.180;2024-03-23T13:18:31;4.90;;;0.77;;
36449;SDS011;22475;51.390;7.180;2024-03-23T13:20:58;3.17;;;0.30;;
36449;SDS011;22475;51.390;7.180;2024-03-23T13:23:24;2.25;;;0.43;;
36449;SDS011;22475;51.390;7.180;2024-03-23T13:25:51;1.73;;;0.73;;
36449;SDS011;22475;51.390;7.180;2024-03-23T13:28:19;2.65;;;0.95;;
36449;SDS011;22475;51.390;7.180;2024-03-23T13:30:49;0.98;;;0.57;;
36449;SDS011;22475;51.390;7.180;2024-03-23T13:33:16;1.75;;;0.85;;
36449;SDS011;22475;51.390;7.180;2024-03-23T13:35:48;2.08;;;0.38;;
36449;SDS011;22475;51.390;7.180;2024-03-23T13:38:14;4.78;;;0.65;;
36449;SDS011;22475;51.390;7.180;2024-03-23T13:40:48;3.17;;;0.38;;
36449;SDS011;22475;51.390;7.180;2024-03-23T13:43:19;2.90;;;0.65;;
36449;SDS011;22475;51.390;7.180;2024-03-23T13:45:46;1.80;;;0.70;;
36449;SDS011;22475;51.390;7.180;2024-03-23T13:48:13;2.88;;;0.75;;
36449;SDS011;22475;51.390;7.180;2024-03-23T13:50:40;2.20;;;0.40;;
36449;SDS011;22475;51.390;7.180;2024-03-23T13:53:06;1.05;;;0.50;;
36449;SDS011;22475;51.390;7.180;2024-03-23T13:55:33;1.73;;;0.85;;
36449;SDS011;22475;51.390;7.180;2024-03-23T13:57:59;18.10;;;1.10;;
36449;SDS011;22475;51.390;7.180;2024-03-23T14:00:27;2.50;;;0.60;;
36449;SDS011;22475;51.390;7.180;2024-03-23T14:02:53;4.90;;;0.70;;
36449;SDS011;22475;51.390;7.180;2024-03-23T14:05:20;2.85;;;0.68;;
36449;SDS011;22475;51.390;7.180;2024-03-23T14:07:46;0.10;;;0.10;;
36449;SDS011;22475;51.390;7.180;2024-03-23T14:10:12;6.55;;;0.65;;
36449;SDS011;22475;51.390;7.180;2024-03-23T14:12:38;2.13;;;1.08;;
36449;SDS011;22475;51.390;7.180;2024-03-23T14:15:06;4.60;;;1.15;;
36449;SDS011;22475;51.390;7.180;2024-03-23T14:17:34;1.17;;;0.30;;
36449;SDS011;22475;51.390;7.180;2024-03-23T14:20:01;1.48;;;0.52;;
36449;SDS011;22475;51.390;7.180;2024-03-23T14:22:30;0.75;;;0.30;;
36449;SDS011;22475;51.390;7.180;2024-03-23T14:24:57;0.38;;;0.20;;
36449;SDS011;22475;51.390;7.180;2024-03-23T14:27:23;4.40;;;0.60;;
36449;SDS011;22475;51.390;7.180;2024-03-23T14:29:50;3.78;;;0.22;;
36449;SDS011;22475;51.390;7.180;2024-03-23T14:32:16;7.05;;;0.85;;
36449;SDS011;22475;51.390;7.180;2024-03-23T14:34:44;2.10;;;0.40;;
36449;SDS011;22475;51.390;7.180;2024-03-23T14:37:10;3.50;;;0.38;;
36449;SDS011;22475;51.390;7.180;2024-03-23T14:39:37;4.13;;;0.93;;
36449;SDS011;22475;51.390;7.180;2024-03-23T14:42:04;2.83;;;0.50;;
36449;SDS011;22475;51.390;7.180;2024-03-23T14:44:31;5.55;;;0.80;;
36449;SDS011;22475;51.390;7.180;2024-03-23T14:46:57;3.10;;;0.65;;
36449;SDS011;22475;51.390;7.180;2024-03-23T14:49:24;6.03;;;0.93;;
36449;SDS011;22475;51.390;7.180;2024-03-23T14:51:51;2.35;;;0.60;;
36449;SDS011;22475;51.390;7.180;2024-03-23T14:54:18;2.78;;;0.73;;
36449;SDS011;22475;51.390;7.180;2024-03-23T14:56:43;0.77;;;0.45;;
36449;SDS011;22475;51.390;7.180;2024-03-23T14:59:12;4.03;;;0.90;;
36449;SDS011;22475;51.390;7.180;2024-03-23T15:01:38;4.82;;;0.70;;
36449;SDS011;22475;51.390;7.180;2024-03-23T15:04:05;6.03;;;0.82;;
36449;SDS011;22475;51.390;7.180;2024-03-23T15:06:30;1.75;;;0.47;;
36449;SDS011;22475;51.390;7.180;2024-03-23T15:08:59;4.00;;;0.85;;
36449;SDS011;22475;51.390;7.180;2024-03-23T15:11:25;3.20;;;0.55;;
36449;SDS011;22475;51.390;7.180;2024-03-23T15:13:52;5.50;;;0.85;;
36449;SDS011;22475;51.390;7.180;2024-03-23T15:16:18;2.47;;;0.82;;
36449;SDS011;22475;51.390;7.180;2024-03-23T15:18:45;6.00;;;2.22;;
36449;SDS011;22475;51.390;7.180;2024-03-23T15:21:11;4.00;;;0.57;;
36449;SDS011;22475;51.390;7.180;2024-03-23T15:23:40;10.57;;;0.82;;
36449;SDS011;22475;51.390;7.180;2024-03-23T15:26:09;1.27;;;0.60;;
36449;SDS011;22475;51.390;7.180;2024-03-23T15:28:36;9.82;;;0.95;;
36449;SDS011;22475;51.390;7.180;2024-03-23T15:31:06;6.35;;;1.23;;
36449;SDS011;22475;51.390;7.180;2024-03-23T15:33:34;5.30;;;0.75;;
36449;SDS011;22475;51.390;7.180;2024-03-23T15:36:00;2.83;;;1.02;;